Nearby METAR Reports

 

KDWH - Houston/Dw Hooks, Texas, USA
Distance from station: SW 9mi, 15km
Updated: Sun, 21-Jan-2018 5:25pm CST
Overcast
Overcast
 Wind from SSE
Wind: SSE 10 mph , 17 km/h
Temperature: 70°F , 21°C
Dew Point: 66°F , 19°C
Humidity: 88%
Barometer: 29.89 inHg , 1012.2 hPa
Clouds: Overcast
Visibility: 10 miles , 16 km
Cloud details: Partly cloudy 1700 ft
Mostly cloudy 2100 ft
Overcast 6000 ft
2018/01/21 23:25 KDWH 212325Z 15009KT 10SM SCT017 BKN021 OVC060 21/19 A2989 RMK AO2 RAE02 P0000 T02110189
KIAH - Houston/Intnl, Texas, USA
Distance from station: SSE 12mi, 20km
Updated: Sun, 21-Jan-2018 5:47pm CST
Mist, Overcast
Mist, Overcast
 Wind from SE
Wind: SE 8 mph , 13 km/h
Temperature: 66°F , 19°C
Dew Point: 64°F , 18°C
Humidity: 94%
Barometer: 29.89 inHg , 1012.2 hPa
Summary: Mist
Clouds: Overcast
Visibility: 3 miles , 5 km
Cloud details: Mostly cloudy 700 ft
Mostly cloudy 1400 ft
Overcast 6000 ft
2018/01/21 23:47 KIAH 212347Z 13007KT 3SM BR BKN007 BKN014 OVC060 19/18 A2989 RMK AO2 RAB05E21 P0000
 
KCXO - Conroe, Texas, USA
Distance from station: N 13mi, 21km
Updated: Sun, 21-Jan-2018 5:30pm CST
Light rain, Overcast
Light rain, Overcast
 Wind from SE
Wind: SE 10 mph , 17 km/h
Temperature: 66°F , 19°C
Dew Point: 66°F , 19°C
Humidity: 100%
Barometer: 29.90 inHg , 1012.5 hPa
Summary: Light rain
Clouds: Overcast
Visibility: 8 miles , 13 km
Cloud details: Partly cloudy 1100 ft
Mostly cloudy 2100 ft
Overcast 7000 ft
2018/01/21 23:30 KCXO 212330Z 14009KT 8SM -RA SCT011 BKN021 OVC070 19/19 A2990 RMK AO2 RAB04 P0000 T01940189
KHOU - Houston/Hobby, Texas, USA
Distance from station: SSE 38mi, 61km
Updated: Sun, 21-Jan-2018 5:27pm CST
Overcast
Overcast
 Wind from SSE
Wind: SSE 15 mph , 24 km/h, Gust: 20 mph , 31 km/h
Temperature: 68°F , 20°C
Dew Point: 68°F , 20°C
Humidity: 100%
Barometer: 29.90 inHg , 1012.5 hPa
Clouds: Overcast
Visibility: 8 miles , 13 km
Cloud details: Mostly cloudy 900 ft
Mostly cloudy 2000 ft
Overcast 6000 ft
2018/01/21 23:27 KHOU 212327Z 16013G17KT 8SM BKN009 BKN020 OVC060 20/20 A2990 RMK AO2 RAE23 P0006 T02000200